createdAt,value
2022-11-22T00:00:13.013Z,2.95
2022-11-22T00:00:52.417Z,2.60
2022-11-22T00:01:24.843Z,2.75
2022-11-22T00:01:59.523Z,2.40
2022-11-22T00:02:37.416Z,2.33
2022-11-22T00:03:18.823Z,3.92
2022-11-22T00:03:51.256Z,2.53
2022-11-22T00:04:28.548Z,2.63
2022-11-22T00:05:00.634Z,2.90
2022-11-22T00:05:35.805Z,3.05
2022-11-22T00:06:08.038Z,3.50
2022-11-22T00:06:40.277Z,4.43
2022-11-22T00:07:15.181Z,3.95
2022-11-22T00:07:47.592Z,4.57
2022-11-22T00:08:22.342Z,3.42
2022-11-22T00:08:54.517Z,3.58
2022-11-22T00:09:26.849Z,3.58
2022-11-22T00:10:01.764Z,3.85
2022-11-22T00:10:34.177Z,3.55
2022-11-22T00:11:06.335Z,3.53
2022-11-22T00:11:41.021Z,2.88
2022-11-22T00:12:13.211Z,4.43
2022-11-22T00:12:45.692Z,3.10
2022-11-22T00:13:21.248Z,3.42
2022-11-22T00:13:53.329Z,3.47
2022-11-22T00:14:25.440Z,4.38
2022-11-22T00:15:00.167Z,3.53
2022-11-22T00:15:32.332Z,3.63
2022-11-22T00:16:05.321Z,5.43
2022-11-22T00:16:40.012Z,4.20
2022-11-22T00:17:12.159Z,3.40
2022-11-22T00:17:44.326Z,3.33
2022-11-22T00:18:19.118Z,3.03
2022-11-22T00:18:51.336Z,3.35
2022-11-22T00:19:26.078Z,3.67
2022-11-22T00:20:00.784Z,3.40
2022-11-22T00:20:33.595Z,3.58
2022-11-22T00:21:06.949Z,2.80
2022-11-22T00:21:41.646Z,3.17
2022-11-22T00:22:13.795Z,2.88
2022-11-22T00:22:45.906Z,3.40
2022-11-22T00:23:20.571Z,2.78
2022-11-22T00:23:56.493Z,2.50
2022-11-22T00:24:28.949Z,2.50
2022-11-22T00:25:03.651Z,2.97
2022-11-22T00:25:35.740Z,2.03
2022-11-22T00:26:12.037Z,2.70
2022-11-22T00:26:46.953Z,3.13
2022-11-22T00:27:19.283Z,3.50
2022-11-22T00:27:51.381Z,4.20
2022-11-22T00:28:26.069Z,3.40
2022-11-22T00:28:58.311Z,3.38
2022-11-22T00:29:30.621Z,3.42
2022-11-22T00:30:05.509Z,3.58
2022-11-22T00:30:37.617Z,3.75
2022-11-22T00:31:09.776Z,2.83
2022-11-22T00:31:44.498Z,3.58
2022-11-22T00:32:16.814Z,3.33
2022-11-22T00:32:48.972Z,4.25
2022-11-22T00:33:23.757Z,2.92
2022-11-22T00:34:00.215Z,2.95
2022-11-22T00:34:34.998Z,3.10
2022-11-22T00:35:10.767Z,3.40
2022-11-22T00:35:43.047Z,3.47
2022-11-22T00:36:17.261Z,4.25
2022-11-22T00:36:52.281Z,3.67
2022-11-22T00:37:24.500Z,3.92
2022-11-22T00:37:59.426Z,5.75
2022-11-22T00:38:31.772Z,4.03
2022-11-22T00:39:03.954Z,4.30
2022-11-22T00:39:38.700Z,4.05
2022-11-22T00:40:11.821Z,4.05
2022-11-22T00:40:46.652Z,3.33
2022-11-22T00:41:18.925Z,3.92
2022-11-22T00:41:53.633Z,3.83
2022-11-22T00:42:25.842Z,3.35
2022-11-22T00:43:00.513Z,3.30
2022-11-22T00:43:32.637Z,5.18
2022-11-22T00:44:05.379Z,3.35
2022-11-22T00:44:40.164Z,3.95
2022-11-22T00:45:12.700Z,3.80
2022-11-22T00:45:44.816Z,3.92
2022-11-22T00:46:19.550Z,4.18
2022-11-22T00:46:51.740Z,4.25
2022-11-22T00:47:24.039Z,4.22
2022-11-22T00:47:58.860Z,5.22
2022-11-22T00:48:31.036Z,4.03
2022-11-22T00:49:03.202Z,3.80
2022-11-22T00:49:37.920Z,4.38
2022-11-22T00:50:13.041Z,4.43
2022-11-22T00:50:45.273Z,4.50
2022-11-22T00:51:17.466Z,4.85
2022-11-22T00:51:52.209Z,4.78
2022-11-22T00:52:24.433Z,4.20
2022-11-22T00:52:58.673Z,4.13
2022-11-22T00:53:33.335Z,4.80
2022-11-22T00:54:05.807Z,6.25
2022-11-22T00:54:38.115Z,5.05
2022-11-22T00:55:12.906Z,6.15
2022-11-22T00:55:45.593Z,5.72
2022-11-22T00:56:17.738Z,4.50
2022-11-22T00:56:52.421Z,5.57
2022-11-22T00:57:24.599Z,5.07
2022-11-22T00:57:56.767Z,5.75
2022-11-22T00:58:31.529Z,4.40
2022-11-22T00:59:03.895Z,4.35
2022-11-22T00:59:37.632Z,5.07
2022-11-22T01:00:13.876Z,4.22
2022-11-22T01:00:46.199Z,5.15
2022-11-22T01:01:22.374Z,5.43
2022-11-22T01:01:57.151Z,4.35
2022-11-22T01:02:29.358Z,4.35
2022-11-22T01:03:01.478Z,4.93
2022-11-22T01:03:36.179Z,4.40
2022-11-22T01:04:08.374Z,4.43
2022-11-22T01:04:43.132Z,4.38
2022-11-22T01:05:18.191Z,4.75
2022-11-22T01:05:50.292Z,4.68
2022-11-22T01:06:22.538Z,4.35
2022-11-22T01:06:57.255Z,4.35
2022-11-22T01:07:29.367Z,4.40
2022-11-22T01:08:01.547Z,5.05
2022-11-22T01:08:36.260Z,4.45
2022-11-22T01:09:09.751Z,6.32
2022-11-22T01:09:42.028Z,4.88
2022-11-22T01:10:16.738Z,5.22
2022-11-22T01:10:48.912Z,5.05
2022-11-22T01:11:21.039Z,4.60
2022-11-22T01:11:56.891Z,4.88
2022-11-22T01:12:29.029Z,5.28
2022-11-22T01:13:01.249Z,5.30
2022-11-22T01:13:36.372Z,5.47
2022-11-22T01:14:08.806Z,4.93
2022-11-22T01:14:40.884Z,4.53
2022-11-22T01:15:15.600Z,5.90
2022-11-22T01:15:47.711Z,4.88
2022-11-22T01:16:20.024Z,3.90
2022-11-22T01:16:54.711Z,5.13
2022-11-22T01:17:27.485Z,4.40
2022-11-22T01:17:59.656Z,6.63
2022-11-22T01:18:31.899Z,4.63
2022-11-22T01:19:06.591Z,5.35
2022-11-22T01:19:38.973Z,4.57
2022-11-22T01:20:13.845Z,5.47
2022-11-22T01:20:48.826Z,5.18
2022-11-22T01:21:21.002Z,4.70
2022-11-22T01:21:53.121Z,5.32
2022-11-22T01:22:27.788Z,4.50
2022-11-22T01:22:59.834Z,4.70
2022-11-22T01:23:32.556Z,6.45
2022-11-22T01:24:08.342Z,5.32
2022-11-22T01:24:40.499Z,4.40
2022-11-22T01:25:12.628Z,4.30
2022-11-22T01:25:47.673Z,4.53
2022-11-22T01:26:19.775Z,4.82
2022-11-22T01:26:51.917Z,4.53
2022-11-22T01:27:26.635Z,4.85
2022-11-22T01:27:58.760Z,5.47
2022-11-22T01:28:30.875Z,5.15
2022-11-22T01:29:06.029Z,4.82
2022-11-22T01:29:38.149Z,4.90
2022-11-22T01:30:11.366Z,4.93
2022-11-22T01:30:46.149Z,5.32
2022-11-22T01:31:18.289Z,5.30
2022-11-22T01:31:50.453Z,5.32
2022-11-22T01:32:25.145Z,6.47
2022-11-22T01:32:59.598Z,4.47
2022-11-22T01:33:31.761Z,5.50
2022-11-22T01:34:08.243Z,4.35
2022-11-22T01:34:40.342Z,5.45
2022-11-22T01:35:15.144Z,5.43
2022-11-22T01:35:50.496Z,5.88
2022-11-22T01:36:22.682Z,5.88
2022-11-22T01:36:55.073Z,6.35
2022-11-22T01:37:29.741Z,5.10
2022-11-22T01:38:01.908Z,5.57
2022-11-22T01:38:34.044Z,3.95
2022-11-22T01:39:08.799Z,4.40
2022-11-22T01:39:43.382Z,4.53
2022-11-22T01:40:15.640Z,4.88
2022-11-22T01:40:50.425Z,4.32
2022-11-22T01:41:29.214Z,4.90
2022-11-22T01:42:10.259Z,5.07
2022-11-22T01:42:53.872Z,5.30
2022-11-22T01:43:28.287Z,5.72
2022-11-22T01:44:18.750Z,5.28
2022-11-22T01:44:53.724Z,4.53
2022-11-22T01:45:45.842Z,4.28
2022-11-22T01:46:27.092Z,4.43
2022-11-22T01:47:12.846Z,4.32
2022-11-22T01:47:45.007Z,4.60
2022-11-22T01:48:33.152Z,4.68
2022-11-22T01:49:15.524Z,5.25
2022-11-22T01:49:54.351Z,4.57
2022-11-22T01:50:31.719Z,4.82
2022-11-22T01:51:10.105Z,4.15
2022-11-22T01:51:46.793Z,4.07
2022-11-22T01:52:24.565Z,5.10
2022-11-22T01:53:02.895Z,5.85
2022-11-22T01:53:37.799Z,5.47
2022-11-22T01:54:14.061Z,3.80
2022-11-22T01:54:52.667Z,4.45
2022-11-22T01:55:25.136Z,5.15
2022-11-22T01:56:00.263Z,5.18
2022-11-22T01:56:36.162Z,4.90
2022-11-22T01:57:14.126Z,4.55
2022-11-22T01:57:48.202Z,5.28
2022-11-22T01:58:21.879Z,4.70
2022-11-22T01:59:01.075Z,5.22
2022-11-22T01:59:36.998Z,4.57
2022-11-22T02:00:12.818Z,5.13
2022-11-22T02:00:56.276Z,5.05
2022-11-22T02:01:29.369Z,4.70
2022-11-22T02:02:05.237Z,4.18
2022-11-22T02:02:38.110Z,4.13
2022-11-22T02:03:14.337Z,7.35
2022-11-22T02:03:53.152Z,4.30
2022-11-22T02:04:27.830Z,4.78
2022-11-22T02:05:04.131Z,4.38
2022-11-22T02:05:41.726Z,5.07
2022-11-22T02:06:14.715Z,5.32
2022-11-22T02:06:57.027Z,4.53
2022-11-22T02:07:35.900Z,5.47
2022-11-22T02:08:13.902Z,4.90
2022-11-22T02:08:57.168Z,4.35
2022-11-22T02:09:30.503Z,4.70
2022-11-22T02:10:02.909Z,3.88
2022-11-22T02:10:43.060Z,4.93
2022-11-22T02:11:15.775Z,4.80
2022-11-22T02:11:54.380Z,4.18
2022-11-22T02:12:28.945Z,5.25
2022-11-22T02:13:02.213Z,5.13
2022-11-22T02:13:41.896Z,3.92
2022-11-22T02:14:15.602Z,4.38
2022-11-22T02:14:51.556Z,4.63
2022-11-22T02:15:24.014Z,4.63
2022-11-22T02:15:56.431Z,4.88
2022-11-22T02:16:31.722Z,4.63
2022-11-22T02:17:04.156Z,4.50
2022-11-22T02:17:38.920Z,4.70
2022-11-22T02:18:11.293Z,5.00
2022-11-22T02:18:43.403Z,4.97
2022-11-22T02:19:26.116Z,5.32
2022-11-22T02:19:58.333Z,4.53
2022-11-22T02:20:30.513Z,5.35
2022-11-22T02:21:09.143Z,5.30
2022-11-22T02:21:41.356Z,4.85
2022-11-22T02:22:30.477Z,5.32
2022-11-22T02:23:14.050Z,5.85
2022-11-22T02:23:54.382Z,6.60
2022-11-22T02:25:11.159Z,4.72
2022-11-22T02:25:54.448Z,5.28
2022-11-22T02:26:31.958Z,5.22
2022-11-22T02:27:04.724Z,5.85
2022-11-22T02:27:37.249Z,5.13
2022-11-22T02:28:13.188Z,4.57
2022-11-22T02:28:45.692Z,5.30
2022-11-22T02:29:19.318Z,5.45
2022-11-22T02:29:54.246Z,5.38
2022-11-22T02:30:26.407Z,5.13
2022-11-22T02:30:58.712Z,5.55
2022-11-22T02:31:45.119Z,5.45
2022-11-22T02:32:17.243Z,6.05
2022-11-22T02:32:49.348Z,6.20
2022-11-22T02:33:24.095Z,6.30
2022-11-22T02:34:00.274Z,5.53
2022-11-22T02:34:42.323Z,5.68
2022-11-22T02:35:22.547Z,4.93
2022-11-22T02:35:55.499Z,5.72
2022-11-22T02:36:27.864Z,6.38
2022-11-22T02:37:03.029Z,5.68
2022-11-22T02:37:35.180Z,6.30
2022-11-22T02:38:11.110Z,5.57
2022-11-22T02:38:45.894Z,5.43
2022-11-22T02:39:20.553Z,5.00
2022-11-22T02:40:00.334Z,6.22
2022-11-22T02:40:38.589Z,5.57
2022-11-22T02:41:13.313Z,5.43
2022-11-22T02:41:49.183Z,5.82
2022-11-22T02:42:22.239Z,6.10
2022-11-22T02:42:58.982Z,5.85
2022-11-22T02:43:37.663Z,5.45
2022-11-22T02:44:10.154Z,6.45
2022-11-22T02:44:49.452Z,7.65
2022-11-22T02:45:24.490Z,7.85
2022-11-22T02:45:56.626Z,7.43
2022-11-22T02:46:28.728Z,6.03
2022-11-22T02:47:03.474Z,7.03
2022-11-22T02:47:35.598Z,6.78
2022-11-22T02:48:09.322Z,6.72
2022-11-22T02:48:44.978Z,5.82
2022-11-22T02:49:18.794Z,6.78
2022-11-22T02:49:52.906Z,7.40
2022-11-22T02:50:27.579Z,6.20
2022-11-22T02:50:59.831Z,6.40
2022-11-22T02:51:34.545Z,6.18
2022-11-22T02:52:06.795Z,6.07
2022-11-22T02:52:38.950Z,7.40
2022-11-22T02:53:14.848Z,5.60
2022-11-22T02:53:49.209Z,4.55
2022-11-22T02:54:21.332Z,6.55
2022-11-22T02:54:56.024Z,6.80
2022-11-22T02:55:28.229Z,6.50
2022-11-22T02:56:00.378Z,6.22
2022-11-22T02:56:37.746Z,7.22
2022-11-22T02:57:09.843Z,5.95
2022-11-22T02:57:41.972Z,5.70
2022-11-22T02:58:16.646Z,6.43
2022-11-22T02:58:48.859Z,5.78
2022-11-22T02:59:20.970Z,6.20
2022-11-22T02:59:55.671Z,5.50
2022-11-22T03:00:27.914Z,6.93
2022-11-22T03:01:00.081Z,5.20
2022-11-22T03:01:34.936Z,5.40
2022-11-22T03:02:07.060Z,5.88
2022-11-22T03:02:39.166Z,6.82
2022-11-22T03:03:13.923Z,6.95
2022-11-22T03:03:46.118Z,6.22
2022-11-22T03:04:25.105Z,5.85
2022-11-22T03:05:00.274Z,6.47
2022-11-22T03:05:32.376Z,7.00
2022-11-22T03:06:04.836Z,6.43
2022-11-22T03:06:39.650Z,6.70
2022-11-22T03:07:11.861Z,6.93
2022-11-22T03:07:44.020Z,6.22
2022-11-22T03:08:18.806Z,7.63
2022-11-22T03:08:56.203Z,7.18
2022-11-22T03:09:29.560Z,7.10
2022-11-22T03:10:04.534Z,7.22
2022-11-22T03:10:36.652Z,7.50
2022-11-22T03:11:11.359Z,7.35
2022-11-22T03:11:47.580Z,7.18
2022-11-22T03:12:19.668Z,7.63
2022-11-22T03:12:54.674Z,6.78
2022-11-22T03:13:26.905Z,7.25
2022-11-22T03:13:59.051Z,5.10
2022-11-22T03:14:33.888Z,6.43
2022-11-22T03:15:06.944Z,6.75
2022-11-22T03:15:39.081Z,6.63
2022-11-22T03:16:13.952Z,7.40
2022-11-22T03:16:47.473Z,7.72
2022-11-22T03:17:19.590Z,6.40
2022-11-22T03:18:00.114Z,7.07
2022-11-22T03:18:34.162Z,7.25
2022-11-22T03:19:06.269Z,6.80
2022-11-22T03:19:41.155Z,7.22
2022-11-22T03:20:22.341Z,6.97
2022-11-22T03:20:56.133Z,6.63
2022-11-22T03:21:30.834Z,6.68
2022-11-22T03:22:03.000Z,6.60
2022-11-22T03:22:35.565Z,6.38
2022-11-22T03:23:10.328Z,7.07
2022-11-22T03:23:42.449Z,7.53
2022-11-22T03:24:14.579Z,7.43
2022-11-22T03:24:49.409Z,7.38
2022-11-22T03:25:21.839Z,7.05
2022-11-22T03:25:54.134Z,6.18
2022-11-22T03:26:29.986Z,7.22
2022-11-22T03:27:04.777Z,7.72
2022-11-22T03:27:39.493Z,7.20
2022-11-22T03:28:11.653Z,6.90
2022-11-22T03:28:43.812Z,6.80
2022-11-22T03:29:18.819Z,6.18
2022-11-22T03:29:51.073Z,7.63
2022-11-22T03:30:23.163Z,7.88
2022-11-22T03:30:57.838Z,8.02
2022-11-22T03:31:29.954Z,7.28
2022-11-22T03:32:02.109Z,7.28
2022-11-22T03:32:36.837Z,7.18
2022-11-22T03:33:09.274Z,6.97
2022-11-22T03:33:41.492Z,7.75
2022-11-22T03:34:20.225Z,8.05
2022-11-22T03:34:52.442Z,7.50
2022-11-22T03:35:28.979Z,7.22
2022-11-22T03:36:04.148Z,7.10
2022-11-22T03:37:05.488Z,8.23
2022-11-22T03:37:40.661Z,7.20
2022-11-22T03:38:12.742Z,8.35
2022-11-22T03:38:44.979Z,7.05
2022-11-22T03:39:22.731Z,8.85
2022-11-22T03:40:00.621Z,7.80
2022-11-22T03:40:33.032Z,7.03
2022-11-22T03:41:18.840Z,7.35
2022-11-22T03:41:55.510Z,7.35
2022-11-22T03:42:30.282Z,7.22
2022-11-22T03:43:07.545Z,7.72
2022-11-22T03:43:39.680Z,7.75
2022-11-22T03:44:11.738Z,6.85
2022-11-22T03:44:46.549Z,11.75
2022-11-22T03:45:18.705Z,9.68
2022-11-22T03:45:50.883Z,7.43
2022-11-22T03:46:25.676Z,8.07
2022-11-22T03:46:59.664Z,8.25
2022-11-22T03:47:34.442Z,7.90
2022-11-22T03:48:06.576Z,7.45
2022-11-22T03:48:38.711Z,7.40
2022-11-22T03:49:14.301Z,8.32
2022-11-22T03:49:46.506Z,7.28
2022-11-22T03:50:19.015Z,8.00
2022-11-22T03:50:53.864Z,8.60
2022-11-22T03:51:26.906Z,7.68
2022-11-22T03:51:59.063Z,7.32
2022-11-22T03:52:33.780Z,8.93
2022-11-22T03:53:05.929Z,5.15
2022-11-22T03:53:41.812Z,6.07
2022-11-22T03:54:16.592Z,7.72
2022-11-22T03:54:48.685Z,6.72
2022-11-22T03:55:20.865Z,5.47
2022-11-22T03:55:55.591Z,6.88
2022-11-22T03:56:27.892Z,7.07
2022-11-22T03:57:00.151Z,6.20
2022-11-22T03:57:37.428Z,8.40
2022-11-22T03:58:09.528Z,7.43
2022-11-22T03:58:41.614Z,7.47
2022-11-22T03:59:16.270Z,6.97
2022-11-22T03:59:48.467Z,6.10
2022-11-22T04:00:21.024Z,6.43
2022-11-22T04:00:57.957Z,6.75
2022-11-22T04:01:30.211Z,6.05
2022-11-22T04:02:02.452Z,7.63
2022-11-22T04:02:37.207Z,7.50
2022-11-22T04:03:09.347Z,8.25
2022-11-22T04:03:44.224Z,7.30
2022-11-22T07:24:45.321Z,17.15
2022-11-22T07:25:17.488Z,14.00
2022-11-22T07:25:49.666Z,14.93
2022-11-22T07:26:26.990Z,13.00
2022-11-22T07:26:59.140Z,15.65
2022-11-22T07:27:31.232Z,15.85
2022-11-22T07:28:05.958Z,14.40
2022-11-22T07:28:38.475Z,12.88
2022-11-22T07:29:10.747Z,13.55
2022-11-22T07:29:45.493Z,13.98
2022-11-22T07:30:17.734Z,13.80
2022-11-22T07:30:50.134Z,16.92
2022-11-22T07:31:24.929Z,15.13
2022-11-22T07:31:57.017Z,12.70
2022-11-22T07:32:31.666Z,18.90
2022-11-22T07:33:03.870Z,15.20
2022-11-22T07:33:36.168Z,15.65
2022-11-22T07:34:10.915Z,17.23
2022-11-22T07:34:43.073Z,15.57
2022-11-22T07:35:15.353Z,16.35
2022-11-22T07:35:50.580Z,15.50
2022-11-22T07:36:23.322Z,14.13
2022-11-22T07:37:00.612Z,13.23
2022-11-22T07:37:35.806Z,14.25
2022-11-22T07:38:07.999Z,11.75
2022-11-22T07:38:43.067Z,15.10
2022-11-22T07:39:15.234Z,12.95
2022-11-22T07:39:52.499Z,12.30
2022-11-22T07:40:24.660Z,15.20
2022-11-22T07:40:56.711Z,13.63
2022-11-22T07:41:31.402Z,15.25
2022-11-22T07:42:03.556Z,15.50
2022-11-22T07:42:35.678Z,15.70
2022-11-22T07:43:10.640Z,17.15
2022-11-22T07:43:43.152Z,12.60
2022-11-22T07:44:17.852Z,11.38
2022-11-22T07:44:50.083Z,15.43
2022-11-22T07:45:22.596Z,11.98
2022-11-22T07:46:00.751Z,13.23
2022-11-22T07:46:33.343Z,14.05
2022-11-22T07:47:08.114Z,14.63
2022-11-22T07:47:40.247Z,13.90
2022-11-22T07:48:14.874Z,13.88
2022-11-22T07:48:50.556Z,16.02
2022-11-22T07:49:22.664Z,12.45
2022-11-22T07:49:54.875Z,12.40
2022-11-22T07:50:29.738Z,11.82
2022-11-22T07:51:05.372Z,13.05
2022-11-22T07:51:40.037Z,10.85
2022-11-22T07:52:12.139Z,14.23
2022-11-22T07:52:44.264Z,12.52
2022-11-22T07:53:19.376Z,13.27
2022-11-22T07:53:51.810Z,13.45
2022-11-22T07:54:26.525Z,14.82
2022-11-22T07:55:01.363Z,15.02
2022-11-22T07:55:33.760Z,12.10
2022-11-22T07:56:09.696Z,14.07
2022-11-22T07:56:41.815Z,14.75
2022-11-22T07:57:16.539Z,14.05
2022-11-22T07:57:48.628Z,14.95
2022-11-22T07:58:20.727Z,15.40
2022-11-22T07:58:55.473Z,16.23
2022-11-22T07:59:27.743Z,14.77
2022-11-22T08:00:00.259Z,17.65
2022-11-22T08:00:35.022Z,16.40
2022-11-22T08:01:08.695Z,13.32
2022-11-22T08:01:40.887Z,17.00
2022-11-22T08:02:15.762Z,14.30
2022-11-22T08:02:47.896Z,16.95
2022-11-22T08:03:24.105Z,13.75
2022-11-22T08:04:03.266Z,13.55
2022-11-22T08:04:35.340Z,15.23
2022-11-22T08:05:08.456Z,13.27
2022-11-22T08:05:43.272Z,13.15
2022-11-22T08:06:16.131Z,13.00
2022-11-22T08:06:50.880Z,12.52
2022-11-22T08:07:23.102Z,13.45
2022-11-22T08:07:55.557Z,13.63
2022-11-22T08:08:30.563Z,15.23
2022-11-22T08:09:02.821Z,13.48
2022-11-22T08:09:37.618Z,13.93
2022-11-22T08:10:12.945Z,14.52
2022-11-22T08:10:45.473Z,14.57
2022-11-22T08:11:20.197Z,12.15
2022-11-22T08:11:52.276Z,14.20
2022-11-22T08:12:24.466Z,11.88
2022-11-22T08:13:01.810Z,13.25
2022-11-22T08:13:34.443Z,12.10
2022-11-22T08:14:06.634Z,13.60
2022-11-22T08:14:41.351Z,13.13
2022-11-22T08:15:16.698Z,13.15
2022-11-22T08:15:49.734Z,10.90
2022-11-22T08:16:24.690Z,10.23
2022-11-22T08:16:56.866Z,13.75
2022-11-22T08:17:29.031Z,15.07
2022-11-22T08:18:03.828Z,11.15
2022-11-22T08:18:37.192Z,14.15
2022-11-22T08:19:09.330Z,13.13
2022-11-22T08:19:44.023Z,13.60
2022-11-22T08:20:16.363Z,13.73
2022-11-22T08:20:48.539Z,15.88
2022-11-22T08:21:23.329Z,13.68
2022-11-22T08:21:58.453Z,13.70
2022-11-22T08:22:30.975Z,12.93
2022-11-22T08:23:05.682Z,13.23
2022-11-22T08:23:38.739Z,13.77
2022-11-22T08:24:13.660Z,14.57
2022-11-22T08:24:45.767Z,13.15
2022-11-22T08:25:23.096Z,14.77
2022-11-22T08:25:55.161Z,13.77
2022-11-22T08:26:30.137Z,15.20
2022-11-22T08:27:02.697Z,15.00
2022-11-22T08:27:34.809Z,16.42
2022-11-22T08:28:09.470Z,16.42
2022-11-22T08:28:42.406Z,11.95
2022-11-22T08:29:17.181Z,13.57
2022-11-22T08:29:49.308Z,13.35
2022-11-22T08:30:24.004Z,14.63
2022-11-22T08:31:03.820Z,12.27
2022-11-22T08:31:38.918Z,12.75
2022-11-22T08:32:11.005Z,13.50
2022-11-22T08:32:45.662Z,13.38
2022-11-22T08:33:17.753Z,12.05
2022-11-22T08:33:53.483Z,11.07
2022-11-22T08:34:28.295Z,13.95
2022-11-22T08:35:00.395Z,12.77
2022-11-22T08:35:33.734Z,11.98
2022-11-22T08:36:09.285Z,12.35
2022-11-22T08:36:41.414Z,11.13
2022-11-22T08:37:13.508Z,12.45
2022-11-22T08:37:48.253Z,13.75
2022-11-22T08:38:20.383Z,13.77
2022-11-22T08:38:55.097Z,15.38
2022-11-22T08:39:27.777Z,12.98
2022-11-22T08:40:02.669Z,15.82
2022-11-22T08:40:41.022Z,11.43
2022-11-22T08:41:16.473Z,11.93
2022-11-22T08:41:48.889Z,13.65
2022-11-22T08:42:20.945Z,10.13
2022-11-22T08:42:58.114Z,10.77
2022-11-22T08:43:30.226Z,11.55
2022-11-22T08:44:04.959Z,12.65
2022-11-22T08:44:37.128Z,12.20
2022-11-22T08:45:10.368Z,9.95
2022-11-22T08:45:45.088Z,13.10
2022-11-22T08:46:17.584Z,12.75
2022-11-22T08:46:52.323Z,11.63
2022-11-22T08:47:24.855Z,11.15
2022-11-22T08:48:01.142Z,10.40
2022-11-22T08:48:34.938Z,13.50
2022-11-22T08:49:09.646Z,13.55
2022-11-22T08:49:41.825Z,11.52
2022-11-22T08:50:13.966Z,10.27
2022-11-22T08:50:53.485Z,12.82
2022-11-22T08:51:25.562Z,12.85
2022-11-22T08:51:57.645Z,12.98
2022-11-22T08:52:32.354Z,11.98
2022-11-22T08:53:04.533Z,12.77
2022-11-22T08:53:41.506Z,12.68
2022-11-22T08:54:14.212Z,13.23
2022-11-22T08:54:49.064Z,11.95
2022-11-22T08:55:21.134Z,11.15
2022-11-22T08:55:56.376Z,11.30
2022-11-22T08:56:31.401Z,12.68
2022-11-22T08:57:03.648Z,11.38
2022-11-22T08:57:35.787Z,11.52
2022-11-22T08:58:10.509Z,9.75
2022-11-22T08:58:43.420Z,12.23
2022-11-22T08:59:18.221Z,11.80
2022-11-22T08:59:50.462Z,10.32
2022-11-22T09:00:28.639Z,10.75
2022-11-22T09:01:06.197Z,9.77
2022-11-22T09:01:41.188Z,8.40
2022-11-22T09:02:13.352Z,9.50
2022-11-22T09:02:48.053Z,8.55
2022-11-22T09:03:20.243Z,7.35
2022-11-22T09:03:52.463Z,9.35
2022-11-22T09:04:30.185Z,7.93
2022-11-22T09:05:02.323Z,11.07
2022-11-22T09:05:34.475Z,10.52
2022-11-22T09:08:57.503Z,10.50
2022-11-22T09:09:44.608Z,9.52
2022-11-22T09:10:17.351Z,8.32
2022-11-22T09:10:49.560Z,10.55
2022-11-22T09:11:26.830Z,10.32
2022-11-22T09:11:58.911Z,10.60
2022-11-22T09:12:33.588Z,12.15
2022-11-22T09:13:05.737Z,11.55
2022-11-22T09:13:38.222Z,10.68
2022-11-22T09:14:13.312Z,9.75
2022-11-22T09:14:45.444Z,9.13
2022-11-22T09:15:20.655Z,12.00
2022-11-22T09:15:52.797Z,12.07
2022-11-22T09:16:24.857Z,10.05
2022-11-22T09:16:59.541Z,13.05
2022-11-22T09:17:31.616Z,13.02
2022-11-22T09:18:03.974Z,12.43
2022-11-22T09:18:38.804Z,12.55
2022-11-22T09:19:10.996Z,11.52
2022-11-22T09:19:43.081Z,10.65
2022-11-22T09:20:18.353Z,10.82
2022-11-22T09:20:57.157Z,11.55
2022-11-22T09:21:32.122Z,10.70
2022-11-22T09:22:04.258Z,10.50
2022-11-22T09:22:39.234Z,12.02
2022-11-22T09:23:11.434Z,9.75
2022-11-22T09:23:44.977Z,11.25
2022-11-22T09:24:20.033Z,11.65
2022-11-22T09:24:52.385Z,9.93
2022-11-22T09:25:27.271Z,12.23
2022-11-22T09:25:59.941Z,10.82
2022-11-22T09:26:37.245Z,11.98
2022-11-22T09:27:09.290Z,10.75
2022-11-22T09:27:44.082Z,10.90
2022-11-22T09:28:16.158Z,11.15
2022-11-22T09:28:51.363Z,10.98
2022-11-22T09:29:23.570Z,11.05
2022-11-22T09:29:58.537Z,11.65
2022-11-22T09:30:30.775Z,10.15
2022-11-22T09:31:05.099Z,10.88
2022-11-22T09:31:39.874Z,11.30
2022-11-22T09:32:12.198Z,11.88
2022-11-22T09:32:47.273Z,11.60
2022-11-22T09:33:19.384Z,10.20
2022-11-22T09:33:51.761Z,10.23
2022-11-22T09:34:26.441Z,10.75
2022-11-22T09:34:58.568Z,12.77
2022-11-22T09:35:33.291Z,12.30
2022-11-22T09:36:07.670Z,10.80
2022-11-22T09:36:42.495Z,11.00
2022-11-22T09:37:18.501Z,12.70
2022-11-22T09:37:53.196Z,11.07
2022-11-22T09:38:25.308Z,10.73
2022-11-22T09:39:00.060Z,9.27
2022-11-22T09:39:32.513Z,8.88
2022-11-22T09:40:08.822Z,9.45
2022-11-22T09:40:46.509Z,10.07
2022-11-22T09:41:45.054Z,8.32
2022-11-22T09:42:50.249Z,10.23
2022-11-22T09:43:33.720Z,11.35
2022-11-22T09:44:19.309Z,9.88
2022-11-22T09:45:22.216Z,12.18
2022-11-22T09:46:27.979Z,13.25
2022-11-22T09:47:10.545Z,11.85
2022-11-22T09:47:54.020Z,11.02
2022-11-22T09:48:38.387Z,10.48
2022-11-22T09:49:32.537Z,10.98
2022-11-22T09:50:12.844Z,11.90
2022-11-22T09:50:57.382Z,13.77
2022-11-22T09:51:37.435Z,10.95
2022-11-22T09:52:15.381Z,11.43
2022-11-22T09:52:56.029Z,10.40
2022-11-22T09:53:35.244Z,10.90
2022-11-22T09:54:13.440Z,10.85
2022-11-22T09:54:50.066Z,10.63
2022-11-22T09:55:30.927Z,10.02
2022-11-22T09:56:09.607Z,13.10
2022-11-22T09:56:45.134Z,13.05
2022-11-22T09:57:23.724Z,12.02
2022-11-22T09:58:09.044Z,11.32
2022-11-22T09:58:46.635Z,11.38
2022-11-22T09:59:25.710Z,9.93
2022-11-22T10:00:03.372Z,10.48
2022-11-22T10:00:52.004Z,10.35
2022-11-22T10:02:17.731Z,10.00
2022-11-22T10:03:01.082Z,10.98
2022-11-22T10:03:46.764Z,12.10
2022-11-22T10:04:25.121Z,9.73
2022-11-22T10:05:03.054Z,10.50
2022-11-22T10:05:46.530Z,10.38
2022-11-22T10:06:27.128Z,11.32
2022-11-22T10:07:02.320Z,11.20
2022-11-22T10:07:40.435Z,11.40
2022-11-22T10:08:22.305Z,10.32
2022-11-22T10:09:08.025Z,10.90
2022-11-22T10:09:48.018Z,10.43
2022-11-22T10:10:27.688Z,11.00
2022-11-22T10:11:01.615Z,12.13
2022-11-22T10:11:42.393Z,8.95
2022-11-22T10:12:20.478Z,10.30
2022-11-22T10:13:01.657Z,9.15
2022-11-22T10:13:41.414Z,11.20
2022-11-22T10:14:29.980Z,12.43
2022-11-22T10:15:08.142Z,11.35
2022-11-22T10:15:51.514Z,9.70
2022-11-22T10:16:31.093Z,11.82
2022-11-22T10:17:20.669Z,10.43
2022-11-22T10:17:56.595Z,13.00
2022-11-22T10:18:40.503Z,11.50
2022-11-22T10:19:17.202Z,11.88
2022-11-22T10:19:56.647Z,11.00
2022-11-22T10:20:30.543Z,11.45
2022-11-22T10:21:05.533Z,12.13
2022-11-22T10:21:37.806Z,13.23
2022-11-22T10:22:15.163Z,12.07
2022-11-22T10:22:48.653Z,14.00
2022-11-22T10:23:25.372Z,12.70
2022-11-22T10:23:57.629Z,11.32
2022-11-22T10:24:32.837Z,12.95
2022-11-22T10:25:15.599Z,9.73
2022-11-22T10:25:58.112Z,10.98
2022-11-22T10:26:32.898Z,10.15
2022-11-22T10:27:11.977Z,10.93
2022-11-22T10:27:45.546Z,12.00
2022-11-22T10:28:22.240Z,13.52
2022-11-22T10:29:15.109Z,10.55
2022-11-22T10:29:59.709Z,10.27
2022-11-22T10:30:39.632Z,9.40
2022-11-22T10:31:20.647Z,13.10
2022-11-22T10:32:00.363Z,12.35
2022-11-22T10:32:42.631Z,12.60
2022-11-22T10:33:26.874Z,12.27
2022-11-22T10:34:08.485Z,12.18
2022-11-22T10:34:52.496Z,11.30
2022-11-22T10:35:41.527Z,10.63
2022-11-22T10:36:23.505Z,11.43
2022-11-22T10:37:06.253Z,10.52
2022-11-22T10:37:48.105Z,11.07
2022-11-22T10:38:49.317Z,14.05
2022-11-22T10:39:41.534Z,9.85
2022-11-22T10:40:25.329Z,11.88
2022-11-22T10:41:07.242Z,9.85
2022-11-22T10:41:51.889Z,12.57
2022-11-22T10:42:43.268Z,13.15
2022-11-22T10:43:27.378Z,11.40
2022-11-22T10:44:15.421Z,11.13
2022-11-22T10:44:57.354Z,12.13
2022-11-22T10:45:33.679Z,13.35
2022-11-22T10:46:17.305Z,13.15
2022-11-22T10:46:59.874Z,11.98
2022-11-22T10:47:46.140Z,13.90
2022-11-22T10:48:28.874Z,11.07
2022-11-22T10:49:09.337Z,11.65
2022-11-22T10:49:52.486Z,11.65
2022-11-22T10:50:34.206Z,11.70
2022-11-22T10:51:14.649Z,12.27
2022-11-22T10:52:37.847Z,13.43
2022-11-22T10:53:25.790Z,11.90
2022-11-22T10:54:10.910Z,12.32
2022-11-22T10:54:56.391Z,10.02
2022-11-22T10:55:42.982Z,11.98
2022-11-22T10:56:28.718Z,11.68
2022-11-22T10:57:08.253Z,9.05
2022-11-22T10:57:50.680Z,10.30
2022-11-22T10:58:32.188Z,10.23
2022-11-22T10:59:28.613Z,11.93
2022-11-22T11:00:15.841Z,12.45
2022-11-22T11:00:58.955Z,12.10
2022-11-22T11:01:39.867Z,10.80
2022-11-22T11:02:32.314Z,10.65
2022-11-22T11:03:25.293Z,10.63
2022-11-22T11:04:02.824Z,11.98
2022-11-22T11:04:38.753Z,12.77
2022-11-22T11:05:21.052Z,11.25
2022-11-22T11:07:11.754Z,11.52
2022-11-22T11:07:49.019Z,12.75
2022-11-22T11:08:54.226Z,11.70
2022-11-22T11:10:08.887Z,10.63
2022-11-22T11:10:36.516Z,10.38
2022-11-22T11:11:11.433Z,11.40
2022-11-22T11:11:45.850Z,10.20
2022-11-22T11:12:24.921Z,10.55
2022-11-22T11:13:00.180Z,8.57
2022-11-22T11:13:38.921Z,9.88
2022-11-22T11:14:29.675Z,10.15